Terminal Aerodrome Forecast
Issued by NWS Buffalo, NY

Home | Current Version | Previous Version | Text Only | Print | Product List | Glossary On
Versions: 1 2 3 4 5 6 7 8 9 10 11 12 13 14 15 16 17 18 19 20 21 22 23 24
000
FTUS41 KBUF 250300 AAA
TAFROC
TAF AMD
KROC 250329Z 2503/2524 19012G18KT 6SM -SHRA VCTS SCT025CB BKN050
     FM250430 22021G40KT P6SM VCSH SCT025 OVC040
     FM250900 24026G50KT P6SM SCT015 BKN025
     FM251400 25022G43KT P6SM BKN035
     FM252200 26016G30KT P6SM BKN045=

USA.gov is the U.S. government's official web portal to all federal, state and local government web resources and services.